createdAt,value
2018-12-13T00:00:25.104Z,33.73
2018-12-13T00:02:53.024Z,31.63
2018-12-13T00:05:20.943Z,36.17
2018-12-13T00:07:48.855Z,35.30
2018-12-13T00:10:16.772Z,35.77
2018-12-13T00:12:44.765Z,32.07
2018-12-13T00:15:12.745Z,36.83
2018-12-13T00:17:40.717Z,38.00
2018-12-13T00:20:08.646Z,38.93
2018-12-13T00:22:36.565Z,36.47
2018-12-13T00:25:04.484Z,34.90
2018-12-13T00:27:32.409Z,31.17
2018-12-13T00:30:00.315Z,32.27
2018-12-13T00:32:28.212Z,28.87
2018-12-13T00:34:56.124Z,23.83
2018-12-13T00:37:24.048Z,29.00
2018-12-13T00:39:51.961Z,26.53
2018-12-13T00:42:20.001Z,22.00
2018-12-13T00:44:47.911Z,26.57
2018-12-13T00:47:15.831Z,24.60
2018-12-13T00:49:43.811Z,15.37
2018-12-13T00:52:11.764Z,16.20
2018-12-13T00:54:39.687Z,21.80
2018-12-13T00:57:07.603Z,14.80
2018-12-13T00:59:35.539Z,16.77
2018-12-13T01:02:03.460Z,12.90
2018-12-13T01:04:31.420Z,16.77
2018-12-13T01:06:59.336Z,16.53
2018-12-13T01:09:27.236Z,15.13
2018-12-13T01:11:55.189Z,13.37
2018-12-13T01:14:23.102Z,15.03
2018-12-13T01:16:51.041Z,10.97
2018-12-13T01:19:18.951Z,15.40
2018-12-13T01:21:46.947Z,14.17
2018-12-13T01:24:14.914Z,15.30
2018-12-13T01:26:42.832Z,11.90
2018-12-13T01:29:10.780Z,14.70
2018-12-13T01:31:38.744Z,13.87
2018-12-13T01:34:06.668Z,14.40
2018-12-13T01:36:34.584Z,13.97
2018-12-13T01:39:03.447Z,13.77
2018-12-13T01:41:31.533Z,10.73
2018-12-13T01:43:59.492Z,13.30
2018-12-13T01:46:27.477Z,11.60
2018-12-13T01:48:55.396Z,12.70
2018-12-13T01:51:23.323Z,12.13
2018-12-13T01:53:51.256Z,12.17
2018-12-13T01:56:19.341Z,12.83
2018-12-13T01:58:47.332Z,12.77
2018-12-13T02:01:15.266Z,11.40
2018-12-13T02:03:43.195Z,12.03
2018-12-13T02:06:11.144Z,12.20
2018-12-13T02:08:39.054Z,12.97
2018-12-13T02:11:06.991Z,11.13
2018-12-13T02:13:34.899Z,12.10
2018-12-13T02:16:02.848Z,13.53
2018-12-13T02:18:30.820Z,10.53
2018-12-13T02:20:58.755Z,9.67
2018-12-13T02:23:26.680Z,10.10
2018-12-13T02:25:54.603Z,11.10
2018-12-13T02:28:22.552Z,9.57
2018-12-13T02:30:50.517Z,12.43
2018-12-13T02:33:18.434Z,14.57
2018-12-13T02:35:46.468Z,15.57
2018-12-13T02:38:14.425Z,10.07
2018-12-13T02:40:42.356Z,22.77
2018-12-13T02:43:10.288Z,13.87
2018-12-13T02:45:38.236Z,16.83
2018-12-13T02:48:06.208Z,20.37
2018-12-13T02:50:34.158Z,17.07
2018-12-13T02:53:02.106Z,19.67
2018-12-13T02:55:30.035Z,17.97
2018-12-13T02:57:57.964Z,16.70
2018-12-13T03:00:25.975Z,16.67
2018-12-13T03:02:53.898Z,17.17
2018-12-13T03:05:22.037Z,15.53
2018-12-13T03:07:49.970Z,12.40
2018-12-13T03:10:17.998Z,12.50
2018-12-13T03:12:45.990Z,10.73
2018-12-13T03:15:13.916Z,13.07
2018-12-13T03:17:41.897Z,15.93
2018-12-13T03:20:09.910Z,11.43
2018-12-13T03:22:37.855Z,14.33
2018-12-13T03:25:05.800Z,8.33
2018-12-13T03:27:33.716Z,13.03
2018-12-13T03:30:01.648Z,12.20
2018-12-13T03:32:29.690Z,9.17
2018-12-13T03:34:57.713Z,7.57
2018-12-13T03:37:25.635Z,7.93
2018-12-13T03:39:53.626Z,10.30
2018-12-13T03:42:21.562Z,8.60
2018-12-13T03:44:49.487Z,6.17
2018-12-13T03:47:17.544Z,8.20
2018-12-13T03:49:45.467Z,5.37
2018-12-13T03:52:13.492Z,5.57
2018-12-13T03:54:41.486Z,11.57
2018-12-13T03:57:09.673Z,7.10
2018-12-13T03:59:37.673Z,10.00
2018-12-13T04:02:05.300Z,5.33
2018-12-13T04:04:33.243Z,6.33
2018-12-13T04:07:01.298Z,5.37
2018-12-13T04:09:29.269Z,6.47
2018-12-13T04:11:57.248Z,8.40
2018-12-13T04:14:25.288Z,5.13
2018-12-13T04:16:53.470Z,5.77
2018-12-13T04:19:21.390Z,5.17
2018-12-13T04:21:49.331Z,11.00
2018-12-13T04:24:17.346Z,5.63
2018-12-13T04:26:45.339Z,8.07
2018-12-13T04:29:13.303Z,6.10
2018-12-13T04:31:41.239Z,7.07
2018-12-13T04:34:09.200Z,8.20
2018-12-13T04:36:37.133Z,7.57
2018-12-13T04:39:07.112Z,6.60
2018-12-13T04:41:35.061Z,9.07
2018-12-13T04:44:03.200Z,4.70
2018-12-13T04:46:31.160Z,9.13
2018-12-13T04:48:59.191Z,5.73
2018-12-13T04:51:27.753Z,7.33
2018-12-13T04:53:55.711Z,4.63
2018-12-13T04:56:23.663Z,6.23
2018-12-13T04:58:51.581Z,5.90
2018-12-13T05:01:19.512Z,9.50
2018-12-13T05:03:47.462Z,4.33
2018-12-13T05:06:15.476Z,9.03
2018-12-13T05:08:43.395Z,6.60
2018-12-13T05:11:11.486Z,3.73
2018-12-13T05:13:39.457Z,4.87
2018-12-13T05:16:07.428Z,7.53
2018-12-13T05:18:35.375Z,3.80
2018-12-13T05:21:03.310Z,4.50
2018-12-13T05:23:31.277Z,6.90
2018-12-13T05:25:59.266Z,4.37
2018-12-13T05:28:27.195Z,7.43
2018-12-13T05:30:55.217Z,3.00
2018-12-13T05:33:23.141Z,7.17
2018-12-13T05:35:51.088Z,4.47
2018-12-13T05:38:19.017Z,4.63
2018-12-13T05:40:47.046Z,7.37
2018-12-13T05:43:15.068Z,5.27
2018-12-13T05:45:43.000Z,4.30
2018-12-13T05:48:10.932Z,6.03
2018-12-13T05:50:38.943Z,5.80
2018-12-13T05:53:06.870Z,8.10
2018-12-13T05:55:34.808Z,5.60
2018-12-13T05:58:03.047Z,3.87
2018-12-13T06:00:31.078Z,4.13
2018-12-13T06:02:59.012Z,3.57
2018-12-13T06:05:26.948Z,7.33
2018-12-13T06:07:55.254Z,2.50
2018-12-13T06:10:23.272Z,5.47
2018-12-13T06:12:51.201Z,8.23
2018-12-13T06:15:19.172Z,4.57
2018-12-13T06:17:47.973Z,9.53
2018-12-13T06:20:15.884Z,5.60
2018-12-13T06:22:43.788Z,8.10
2018-12-13T06:25:11.727Z,9.10
2018-12-13T06:27:39.657Z,9.03
2018-12-13T06:30:07.954Z,5.30
2018-12-13T06:32:35.987Z,4.90
2018-12-13T06:35:05.294Z,9.63
2018-12-13T06:37:33.395Z,5.77
2018-12-13T06:40:01.312Z,7.57
2018-12-13T06:42:29.228Z,7.87
2018-12-13T06:44:57.184Z,5.43
2018-12-13T06:47:25.107Z,4.40
2018-12-13T06:49:53.028Z,6.40
2018-12-13T06:52:20.993Z,5.47
2018-12-13T06:54:48.928Z,8.08
2018-12-13T06:57:16.884Z,8.20
2018-12-13T06:59:44.832Z,6.93
2018-12-13T07:02:12.765Z,5.63
2018-12-13T07:04:40.680Z,6.63
2018-12-13T07:07:08.631Z,6.97
2018-12-13T07:09:36.593Z,5.93
2018-12-13T07:12:04.597Z,6.03
2018-12-13T07:14:32.572Z,5.13
2018-12-13T07:17:00.473Z,5.80
2018-12-13T07:19:28.396Z,7.87
2018-12-13T07:21:56.309Z,6.40
2018-12-13T07:24:24.248Z,5.23
2018-12-13T07:26:53.181Z,10.43
2018-12-13T07:29:21.103Z,7.03
2018-12-13T07:31:49.028Z,4.57
2018-12-13T07:34:16.962Z,7.10
2018-12-13T07:36:44.867Z,8.87
2018-12-13T07:39:12.800Z,5.70
2018-12-13T07:41:40.730Z,8.50
2018-12-13T07:44:08.762Z,7.90
2018-12-13T07:46:36.716Z,9.20
2018-12-13T07:49:04.712Z,8.63
2018-12-13T07:51:32.744Z,10.93
2018-12-13T07:54:00.678Z,10.87
2018-12-13T07:56:29.291Z,9.80
2018-12-13T07:58:57.467Z,10.60
2018-12-13T08:01:25.393Z,7.27
2018-12-13T08:03:53.592Z,8.53
2018-12-13T08:06:21.517Z,10.10
2018-12-13T08:08:49.468Z,6.63
2018-12-13T08:11:17.408Z,6.90
2018-12-13T08:13:45.362Z,7.70
2018-12-13T08:16:13.313Z,4.60
2018-12-13T08:18:41.250Z,5.40
2018-12-13T08:21:09.314Z,8.23
2018-12-13T08:23:37.325Z,6.10
2018-12-13T08:26:05.255Z,6.00
2018-12-13T08:28:33.176Z,6.83
2018-12-13T08:31:01.106Z,6.90
2018-12-13T08:33:29.038Z,10.73
2018-12-13T08:35:57.015Z,9.23
2018-12-13T08:38:27.430Z,7.03
2018-12-13T08:40:54.909Z,9.13
2018-12-13T08:43:22.848Z,8.37
2018-12-13T08:45:50.820Z,4.40
2018-12-13T08:48:18.741Z,5.13
2018-12-13T08:50:46.677Z,5.57
2018-12-13T08:53:14.612Z,6.90
2018-12-13T08:55:42.546Z,6.90
2018-12-13T08:58:10.498Z,4.67
2018-12-13T09:00:38.543Z,7.93
2018-12-13T09:03:06.521Z,9.63
2018-12-13T09:05:34.503Z,8.57
2018-12-13T09:08:02.514Z,7.67
2018-12-13T09:10:30.465Z,11.03
2018-12-13T09:12:58.397Z,6.40
2018-12-13T09:15:26.354Z,7.03
2018-12-13T09:17:54.286Z,7.80
2018-12-13T09:20:22.234Z,7.57
2018-12-13T09:22:50.159Z,9.90
2018-12-13T09:25:18.093Z,9.10
2018-12-13T09:27:46.054Z,12.00
2018-12-13T09:30:14.021Z,7.80
2018-12-13T09:32:41.992Z,7.67
2018-12-13T09:35:09.996Z,10.23
2018-12-13T09:37:38.055Z,10.10
2018-12-13T09:40:06.087Z,5.27
2018-12-13T09:42:34.029Z,15.37
2018-12-13T09:45:02.020Z,7.43
2018-12-13T09:47:30.077Z,7.63
2018-12-13T09:49:58.075Z,7.37
2018-12-13T09:52:26.033Z,11.30
2018-12-13T09:54:53.997Z,7.27
2018-12-13T09:57:21.936Z,6.43
2018-12-13T09:59:49.916Z,9.10
2018-12-13T10:02:17.848Z,4.97
2018-12-13T10:04:45.826Z,6.27
2018-12-13T10:07:13.761Z,5.53
2018-12-13T10:09:41.733Z,7.23
2018-12-13T10:12:09.860Z,9.33
2018-12-13T10:14:41.252Z,6.70
2018-12-13T10:17:09.284Z,9.87
2018-12-13T10:19:37.217Z,7.97
2018-12-13T10:22:11.493Z,9.13
2018-12-13T10:24:35.208Z,7.43
2018-12-13T10:27:03.142Z,7.50
2018-12-13T10:29:31.088Z,8.07
2018-12-13T10:31:59.018Z,8.20
2018-12-13T10:34:26.978Z,7.17
2018-12-13T10:36:54.934Z,6.57
2018-12-13T10:39:22.864Z,8.97
2018-12-13T10:41:50.805Z,8.73
2018-12-13T10:44:23.252Z,5.60
2018-12-13T10:46:51.225Z,7.60
2018-12-13T10:49:19.241Z,8.97
2018-12-13T10:51:47.185Z,10.50
2018-12-13T10:54:15.116Z,7.93
2018-12-13T10:56:43.361Z,11.67
2018-12-13T10:59:11.284Z,9.48
2018-12-13T11:01:40.096Z,9.13
2018-12-13T11:04:08.122Z,11.40
2018-12-13T11:06:36.054Z,9.40
2018-12-13T11:09:04.570Z,5.30
2018-12-13T11:11:32.580Z,10.50
2018-12-13T11:14:00.723Z,9.00
2018-12-13T11:16:28.678Z,9.53
2018-12-13T11:18:56.703Z,6.83
2018-12-13T11:21:24.787Z,9.50
2018-12-13T11:23:52.728Z,6.37
2018-12-13T11:26:20.732Z,9.57
2018-12-13T11:30:31.125Z,6.97
2018-12-13T11:32:59.060Z,11.60
2018-12-13T11:35:26.996Z,11.17
2018-12-13T11:37:54.932Z,8.97
2018-12-13T11:40:22.871Z,7.30
2018-12-13T11:42:50.859Z,6.93
2018-12-13T11:45:18.996Z,6.07
2018-12-13T11:47:47.021Z,19.83
2018-12-13T11:50:15.096Z,9.10
2018-12-13T11:52:43.076Z,12.90
2018-12-13T11:55:21.921Z,11.67
2018-12-13T11:57:50.628Z,11.83
2018-12-13T12:00:18.580Z,14.40
2018-12-13T12:02:46.641Z,16.23
2018-12-13T12:05:14.489Z,12.13
2018-12-13T12:07:42.443Z,18.07
2018-12-13T12:10:10.403Z,9.27
2018-12-13T12:12:38.392Z,8.43
2018-12-13T12:15:06.411Z,8.73
2018-12-13T12:17:34.352Z,8.03
2018-12-13T12:20:02.296Z,10.57
2018-12-13T12:22:30.255Z,7.97
2018-12-13T12:24:58.220Z,16.63
2018-12-13T12:27:26.174Z,9.13
2018-12-13T12:29:54.117Z,8.27
2018-12-13T12:32:22.048Z,14.27
2018-12-13T12:34:49.982Z,11.53
2018-12-13T12:37:17.952Z,16.17
2018-12-13T12:39:45.886Z,14.53
2018-12-13T12:42:13.852Z,11.40
2018-12-13T12:44:41.819Z,9.90
2018-12-13T12:47:10.112Z,9.83
2018-12-13T12:49:38.968Z,17.53
2018-12-13T12:52:06.906Z,10.30
2018-12-13T12:54:34.868Z,9.60
2018-12-13T12:57:02.861Z,14.43
2018-12-13T12:59:30.773Z,9.80
2018-12-13T13:01:58.712Z,11.53
2018-12-13T13:04:26.684Z,9.60
2018-12-13T13:06:54.613Z,9.70
2018-12-13T13:09:25.231Z,7.97
2018-12-13T13:11:52.516Z,11.07
2018-12-13T13:14:20.665Z,12.30
2018-12-13T13:16:48.684Z,9.67
2018-12-13T13:19:16.605Z,11.50
2018-12-13T13:21:44.639Z,16.20
2018-12-13T13:24:12.636Z,9.37
2018-12-13T13:26:40.640Z,17.00
2018-12-13T13:29:09.328Z,16.27
2018-12-13T13:31:37.279Z,21.80
2018-12-13T13:34:05.192Z,39.23
2018-12-13T13:36:33.112Z,34.27
2018-12-13T13:39:01.130Z,18.00
2018-12-13T13:41:29.127Z,14.40
2018-12-13T13:43:57.063Z,14.00
2018-12-13T13:46:25.029Z,14.70
2018-12-13T13:48:53.091Z,10.67
2018-12-13T13:51:21.017Z,13.67
2018-12-13T13:53:48.972Z,11.67
2018-12-13T13:56:16.898Z,18.17
2018-12-13T13:58:44.856Z,15.43
2018-12-13T14:01:12.785Z,14.67
2018-12-13T14:03:40.766Z,15.03
2018-12-13T14:06:08.749Z,14.70
2018-12-13T14:08:36.702Z,10.83
2018-12-13T14:11:04.676Z,13.70
2018-12-13T14:13:32.639Z,13.73
2018-12-13T14:16:00.587Z,9.97
2018-12-13T14:18:28.543Z,13.37
2018-12-13T14:20:56.491Z,13.03
2018-12-13T14:23:24.496Z,8.90
2018-12-13T14:25:52.432Z,13.13
2018-12-13T14:28:20.357Z,10.27
2018-12-13T14:30:48.303Z,15.67
2018-12-13T14:33:16.283Z,9.53
2018-12-13T14:35:44.215Z,14.17
2018-12-13T14:38:26.831Z,13.43
2018-12-13T14:40:54.808Z,10.90
2018-12-13T14:43:22.732Z,15.50
2018-12-13T14:45:50.678Z,12.90
2018-12-13T14:48:18.614Z,16.47
2018-12-13T14:50:46.565Z,14.43
2018-12-13T14:53:14.540Z,10.30
2018-12-13T14:55:42.592Z,14.10
2018-12-13T14:58:10.564Z,17.27
2018-12-13T15:00:38.881Z,9.30
2018-12-13T15:03:07.014Z,10.23
2018-12-13T15:05:34.973Z,15.07
2018-12-13T15:08:02.918Z,14.10
2018-12-13T15:10:30.900Z,12.00
2018-12-13T15:12:58.915Z,10.43
2018-12-13T15:15:26.864Z,13.43
2018-12-13T15:17:54.837Z,12.23
2018-12-13T15:20:22.781Z,9.23
2018-12-13T15:22:50.771Z,10.77
2018-12-13T15:25:18.724Z,9.90
2018-12-13T15:27:46.664Z,9.73
2018-12-13T15:30:14.596Z,12.13
2018-12-13T15:32:42.593Z,9.67
2018-12-13T15:35:10.533Z,10.13
2018-12-13T15:37:38.895Z,11.73
2018-12-13T15:40:07.405Z,15.27
2018-12-13T15:42:35.568Z,12.80
2018-12-13T15:45:03.727Z,13.80
2018-12-13T15:47:31.673Z,15.70
2018-12-13T15:49:59.621Z,16.47
2018-12-13T15:52:27.568Z,16.23
2018-12-13T15:54:55.575Z,14.17
2018-12-13T15:57:23.533Z,12.80
2018-12-13T15:59:51.471Z,14.73
2018-12-13T16:02:19.425Z,13.83
2018-12-13T16:04:47.450Z,14.73
2018-12-13T16:07:15.504Z,13.73
2018-12-13T16:09:43.319Z,19.43
2018-12-13T16:12:11.307Z,14.00
2018-12-13T16:14:40.259Z,16.23
2018-12-13T16:17:08.211Z,17.37
2018-12-13T16:19:36.162Z,20.15
2018-12-13T16:22:04.136Z,18.12
2018-12-13T16:24:32.129Z,16.80
2018-12-13T16:27:00.075Z,17.67
2018-12-13T16:29:28.038Z,15.60
2018-12-13T16:31:55.972Z,18.65
2018-12-13T16:34:23.928Z,17.03
2018-12-13T16:36:52.204Z,13.20
2018-12-13T16:39:20.168Z,16.50
2018-12-13T16:41:48.111Z,11.40
2018-12-13T16:44:16.279Z,16.10
2018-12-13T16:46:44.272Z,20.00
2018-12-13T16:49:12.393Z,18.80
2018-12-13T16:51:40.413Z,14.77
2018-12-13T16:54:08.626Z,22.87
2018-12-13T16:56:36.594Z,11.67
2018-12-13T16:59:04.568Z,15.37
2018-12-13T17:01:32.845Z,10.70
2018-12-13T17:04:00.847Z,15.83
2018-12-13T17:06:28.920Z,15.93
2018-12-13T17:08:56.966Z,15.07
2018-12-13T17:11:25.097Z,16.90
2018-12-13T17:13:53.025Z,15.23
2018-12-13T17:16:21.029Z,22.30
2018-12-13T17:18:49.078Z,14.83
2018-12-13T17:21:17.052Z,15.03
2018-12-13T17:23:45.113Z,12.47
2018-12-13T17:26:13.698Z,11.43
2018-12-13T17:28:41.700Z,14.13
2018-12-13T17:31:09.696Z,12.87
2018-12-13T17:33:37.894Z,12.60
2018-12-13T17:36:06.127Z,15.43
2018-12-13T17:38:34.152Z,14.73
2018-12-13T17:41:02.201Z,12.20
2018-12-13T17:43:30.199Z,14.63
2018-12-13T17:45:58.164Z,14.87
2018-12-13T17:48:26.238Z,12.73
2018-12-13T17:50:54.336Z,9.77
2018-12-13T17:53:22.407Z,9.80
2018-12-13T17:55:50.345Z,11.23
2018-12-13T17:58:18.396Z,11.40
2018-12-13T18:00:46.381Z,17.23
2018-12-13T18:03:14.396Z,13.07
2018-12-13T18:05:42.864Z,11.53
2018-12-13T18:08:10.847Z,13.10
2018-12-13T18:10:38.951Z,15.03
2018-12-13T18:13:07.014Z,13.50
2018-12-13T18:15:34.956Z,16.27
2018-12-13T18:18:02.941Z,17.10
2018-12-13T18:20:30.879Z,16.53
2018-12-13T18:22:58.800Z,16.57
2018-12-13T18:25:26.759Z,19.03
2018-12-13T18:27:54.677Z,18.03
2018-12-13T18:30:22.625Z,24.87
2018-12-13T18:32:50.578Z,36.23
2018-12-13T18:35:18.572Z,48.97
2018-12-13T18:37:46.562Z,31.53
2018-12-13T18:40:14.524Z,25.07
2018-12-13T18:42:42.471Z,36.73
2018-12-13T18:45:10.464Z,28.67
2018-12-13T18:47:38.430Z,21.80
2018-12-13T18:50:07.252Z,61.13
2018-12-13T18:52:36.417Z,34.37
2018-12-13T18:55:04.589Z,24.10
2018-12-13T18:57:32.544Z,34.23
2018-12-13T19:00:00.472Z,21.20
2018-12-13T19:02:28.432Z,23.37
2018-12-13T19:04:56.381Z,18.43
2018-12-13T19:07:24.372Z,21.07
2018-12-13T19:09:52.340Z,24.67
2018-12-13T19:12:20.356Z,24.50
2018-12-13T19:14:48.305Z,27.37
2018-12-13T19:17:16.245Z,20.63
2018-12-13T19:19:44.169Z,24.13
2018-12-13T19:22:12.180Z,28.30
2018-12-13T19:24:40.165Z,36.03
2018-12-13T19:27:08.091Z,30.63
2018-12-13T19:29:36.052Z,33.20
2018-12-13T19:32:04.024Z,36.17
2018-12-13T19:34:31.969Z,35.90
2018-12-13T19:36:59.912Z,35.53
2018-12-13T19:39:27.876Z,33.00
2018-12-13T19:41:55.801Z,34.60
2018-12-13T19:44:23.731Z,28.93
2018-12-13T19:46:51.804Z,31.33
2018-12-13T19:49:19.784Z,29.93
2018-12-13T19:51:47.720Z,33.03
2018-12-13T19:54:15.642Z,40.53
2018-12-13T19:56:43.682Z,37.87
2018-12-13T19:59:11.652Z,32.20
2018-12-13T20:01:39.568Z,35.23
2018-12-13T20:04:07.500Z,32.20
2018-12-13T20:06:35.456Z,28.63
2018-12-13T20:09:04.576Z,30.93
2018-12-13T20:11:32.526Z,32.97
2018-12-13T20:14:00.441Z,38.73
2018-12-13T20:16:28.433Z,31.00
2018-12-13T20:18:56.371Z,31.90
2018-12-13T20:21:24.420Z,33.47
2018-12-13T20:23:52.394Z,28.37
2018-12-13T20:26:20.320Z,32.63
2018-12-13T20:28:48.277Z,32.07
2018-12-13T20:31:16.219Z,31.90
2018-12-13T20:33:44.245Z,35.83
2018-12-13T20:36:12.200Z,30.00
2018-12-13T20:38:40.155Z,31.37
2018-12-13T20:41:08.063Z,29.47
2018-12-13T20:43:36.001Z,34.67
2018-12-13T20:46:03.980Z,36.67
2018-12-13T20:48:38.685Z,40.33
2018-12-13T20:51:06.676Z,41.67
2018-12-13T20:53:34.648Z,38.07
2018-12-13T20:56:02.632Z,35.53
2018-12-13T20:58:30.559Z,42.23
2018-12-13T21:00:58.501Z,32.40
2018-12-13T21:03:26.967Z,36.90
2018-12-13T21:05:54.964Z,31.63
2018-12-13T21:08:22.894Z,45.93
2018-12-13T21:10:50.832Z,40.73
2018-12-13T21:13:18.818Z,34.30
2018-12-13T21:15:46.819Z,32.57
2018-12-13T21:18:14.767Z,30.53
2018-12-13T21:20:42.708Z,27.77
2018-12-13T21:23:10.653Z,32.93
2018-12-13T21:25:38.640Z,26.97
2018-12-13T21:28:06.607Z,31.13
2018-12-13T21:30:34.671Z,33.70
2018-12-13T21:33:02.667Z,26.73
2018-12-13T21:35:30.592Z,27.37
2018-12-13T21:37:59.221Z,24.23
2018-12-13T21:40:27.213Z,25.63
2018-12-13T21:42:55.181Z,25.17
2018-12-13T21:45:23.159Z,34.70
2018-12-13T21:47:51.113Z,35.40
2018-12-13T21:50:19.071Z,38.80
2018-12-13T21:52:46.991Z,35.83
2018-12-13T21:55:14.911Z,36.73
2018-12-13T21:57:42.842Z,42.23
2018-12-13T22:00:11.351Z,42.93
2018-12-13T22:02:39.285Z,43.70
2018-12-13T22:05:07.200Z,42.67
2018-12-13T22:07:35.129Z,42.97
2018-12-13T22:10:04.007Z,39.97
2018-12-13T22:12:32.000Z,46.07
2018-12-13T22:15:02.638Z,40.17
2018-12-13T22:17:30.199Z,48.63
2018-12-13T22:19:58.228Z,46.47
2018-12-13T22:22:26.179Z,48.23
2018-12-13T22:24:54.118Z,47.90
2018-12-13T22:27:22.160Z,38.87
2018-12-13T22:29:50.124Z,35.73
2018-12-13T22:32:18.123Z,38.47
2018-12-13T22:34:46.307Z,39.43
2018-12-13T22:37:14.388Z,48.83
2018-12-13T22:39:42.307Z,47.17
2018-12-13T22:42:41.219Z,40.73
2018-12-13T22:45:09.202Z,46.23
2018-12-13T22:47:37.148Z,41.80
2018-12-13T22:50:05.180Z,44.83
2018-12-13T22:52:33.235Z,46.87
2018-12-13T22:55:01.184Z,41.37
2018-12-13T22:57:29.156Z,43.00
2018-12-13T22:59:57.124Z,42.13
2018-12-13T23:02:25.109Z,42.80
2018-12-13T23:04:53.209Z,39.50
2018-12-13T23:07:21.166Z,38.07
2018-12-13T23:09:49.092Z,33.87
2018-12-13T23:12:17.299Z,38.67
2018-12-13T23:14:45.384Z,38.07
2018-12-13T23:17:13.364Z,34.57
2018-12-13T23:19:41.295Z,37.13
2018-12-13T23:22:09.237Z,37.93
2018-12-13T23:24:37.174Z,33.90
2018-12-13T23:27:05.168Z,36.20
2018-12-13T23:29:33.134Z,32.10
2018-12-13T23:32:01.152Z,30.57
2018-12-13T23:34:29.080Z,31.30
2018-12-13T23:36:57.140Z,26.63
2018-12-13T23:39:25.085Z,25.43
2018-12-13T23:41:53.031Z,23.27
2018-12-13T23:44:20.953Z,31.93
2018-12-13T23:46:48.887Z,31.80
2018-12-13T23:49:16.833Z,37.10
2018-12-13T23:51:44.766Z,37.13
2018-12-13T23:54:12.733Z,31.37
2018-12-13T23:56:40.945Z,31.77
2018-12-13T23:59:09.156Z,31.70
